Time;durP1;ratioP1;P1;durP2;ratioP2;P2;SDS_P1;SDS_P2;PMS_P1;PMS_P2;Temp;Humidity;BMP_temperature;BMP_pressure;BME280_temperature;BME280_humidity;BME280_pressure;Samples;Min_cycle;Max_cycle;Signal;HPM_P1;HPM_P2
2023/08/03 00:00:05;;;;;;;0.80;0.73;;;;;;;16.97;100.00;98769.78;3613770;39;20050;-63
2023/08/03 00:02:34;;;;;;;3.15;1.23;;;;;;;16.97;100.00;98764.38;3613084;39;20051;-63
2023/08/03 00:05:02;;;;;;;2.72;0.95;;;;;;;16.94;100.00;98763.72;3614300;39;20050;-63
2023/08/03 00:07:27;;;;;;;1.77;0.90;;;;;;;16.98;100.00;98771.50;3613116;39;20077;-63
2023/08/03 00:09:53;;;;;;;2.55;1.30;;;;;;;16.99;100.00;98774.00;3618501;39;20063;-63
2023/08/03 00:12:19;;;;;;;2.83;1.38;;;;;;;17.00;100.00;98772.13;3616526;39;20058;-64
2023/08/03 00:14:44;;;;;;;4.03;1.50;;;;;;;16.93;100.00;98767.44;3612987;39;20059;-63
2023/08/03 00:17:10;;;;;;;4.80;2.00;;;;;;;17.04;100.00;98790.59;3615426;39;20053;-63
2023/08/03 00:19:36;;;;;;;4.60;1.95;;;;;;;17.05;100.00;98788.72;3613830;39;20114;-64
2023/08/03 00:22:01;;;;;;;4.47;2.40;;;;;;;17.06;100.00;98787.69;3616382;39;20073;-63
2023/08/03 00:24:27;;;;;;;3.40;2.25;;;;;;;17.07;100.00;98779.38;3615945;39;20703;-63
2023/08/03 00:26:53;;;;;;;5.68;2.47;;;;;;;17.10;100.00;98789.84;3615887;39;20077;-63
2023/08/03 00:29:18;;;;;;;4.82;2.80;;;;;;;17.12;100.00;98798.63;3612624;39;20073;-63
2023/08/03 00:31:44;;;;;;;4.80;2.75;;;;;;;17.13;100.00;98794.06;3613795;39;21601;-63
2023/08/03 00:34:09;;;;;;;7.72;3.45;;;;;;;17.15;100.00;98800.13;3613290;39;20050;-63
2023/08/03 00:36:35;;;;;;;7.75;3.28;;;;;;;17.17;100.00;98806.25;3614804;39;20046;-63
2023/08/03 00:39:00;;;;;;;7.40;3.70;;;;;;;17.18;100.00;98813.34;3615692;39;20054;-63
2023/08/03 00:41:27;;;;;;;8.95;3.47;;;;;;;17.19;100.00;98825.91;3613517;39;20047;-64
2023/08/03 00:43:52;;;;;;;9.27;3.97;;;;;;;17.14;100.00;98817.47;3613598;39;20047;-64
2023/08/03 00:46:18;;;;;;;5.35;4.20;;;;;;;17.11;100.00;98834.13;3613556;39;20053;-64
2023/08/03 00:48:44;;;;;;;7.60;4.28;;;;;;;17.12;100.00;98835.81;3613445;39;20231;-64
2023/08/03 00:51:10;;;;;;;8.45;4.75;;;;;;;17.09;100.00;98834.28;3614347;39;20054;-62
2023/08/03 00:53:35;;;;;;;11.43;5.03;;;;;;;17.10;100.00;98846.03;3615140;39;20379;-63
2023/08/03 00:56:01;;;;;;;9.98;5.15;;;;;;;17.08;100.00;98842.66;3614316;39;20062;-65
2023/08/03 00:58:27;;;;;;;7.65;4.82;;;;;;;17.10;100.00;98854.19;3612519;39;20067;-64
2023/08/03 01:00:52;;;;;;;8.45;4.68;;;;;;;17.09;100.00;98857.91;3614481;39;20378;-63
2023/08/03 01:03:18;;;;;;;9.27;5.47;;;;;;;17.08;100.00;98857.06;3614396;39;20047;-64
2023/08/03 01:05:44;;;;;;;7.20;4.80;;;;;;;17.13;100.00;98870.09;3613387;39;20058;-64
2023/08/03 01:08:09;;;;;;;8.95;5.80;;;;;;;17.10;100.00;98860.44;3614455;39;20062;-64
2023/08/03 01:10:36;;;;;;;9.20;5.18;;;;;;;17.10;100.00;98876.72;3611563;39;20071;-64
2023/08/03 01:13:02;;;;;;;8.32;5.72;;;;;;;17.15;100.00;98873.44;3613287;39;20043;-64
2023/08/03 01:15:27;;;;;;;9.25;5.68;;;;;;;17.16;100.00;98873.28;3616639;39;20293;-64
2023/08/03 01:17:54;;;;;;;7.85;5.22;;;;;;;17.19;100.00;98880.22;3614709;39;20047;-64
2023/08/03 01:20:23;;;;;;;12.07;5.90;;;;;;;17.00;100.00;98859.00;3615805;39;20055;-64
2023/08/03 01:22:49;;;;;;;8.10;5.40;;;;;;;16.84;100.00;98827.44;3614914;39;20047;-64
2023/08/03 01:25:15;;;;;;;9.02;5.10;;;;;;;17.22;100.00;98903.41;3605250;39;20061;-64
2023/08/03 01:27:45;;;;;;;8.35;4.70;;;;;;;17.24;100.00;98894.06;3613128;39;21731;-64
2023/08/03 01:30:11;;;;;;;8.27;4.80;;;;;;;17.25;100.00;98901.16;3612523;39;20350;-64
2023/08/03 01:32:37;;;;;;;5.47;4.25;;;;;;;17.27;100.00;98915.41;3612997;39;20043;-64
2023/08/03 01:35:03;;;;;;;7.97;4.05;;;;;;;17.07;100.00;98877.09;3612365;39;20089;-64
2023/08/03 01:37:28;;;;;;;5.63;3.40;;;;;;;17.29;100.00;98918.81;3614241;39;20043;-65
2023/08/03 01:39:55;;;;;;;6.85;3.80;;;;;;;17.29;100.00;98916.09;3616835;39;20291;-64
2023/08/03 01:42:20;;;;;;;6.72;3.58;;;;;;;17.26;100.00;98912.91;3617768;39;20047;-63
2023/08/03 01:44:48;;;;;;;7.18;3.80;;;;;;;17.31;100.00;98927.59;3616849;39;20065;-64
2023/08/03 01:47:14;;;;;;;6.80;3.08;;;;;;;17.29;100.00;98924.22;3613054;39;20577;-64
2023/08/03 01:49:39;;;;;;;8.40;3.55;;;;;;;16.94;100.00;98861.44;3615006;39;20067;-65
2023/08/03 01:52:05;;;;;;;6.68;3.22;;;;;;;17.31;100.00;98916.72;3615677;39;20312;-64
2023/08/03 01:54:31;;;;;;;6.80;3.25;;;;;;;17.25;100.00;98914.75;3615856;39;20054;-64
2023/08/03 01:56:56;;;;;;;5.43;2.30;;;;;;;17.24;100.00;98910.34;3615823;39;20053;-64
2023/08/03 01:59:22;;;;;;;5.80;2.33;;;;;;;17.07;100.00;98881.69;3613012;39;20051;-65
2023/08/03 02:01:48;;;;;;;4.70;2.25;;;;;;;17.28;100.00;98921.69;3617750;39;20063;-64
2023/08/03 02:04:14;;;;;;;5.95;1.98;;;;;;;17.27;100.00;98926.28;3614296;39;20063;-64
2023/08/03 02:06:40;;;;;;;6.13;2.08;;;;;;;17.24;100.00;98926.66;3612687;39;20066;-63
2023/08/03 02:09:06;;;;;;;8.02;2.88;;;;;;;17.23;100.00;98929.56;3613184;39;20055;-64
2023/08/03 02:11:34;;;;;;;8.38;2.78;;;;;;;17.25;100.00;98932.91;3614976;39;20067;-64
2023/08/03 02:14:00;;;;;;;10.77;3.35;;;;;;;17.25;100.00;98922.91;3615019;39;20119;-64
2023/08/03 02:16:26;;;;;;;11.13;3.65;;;;;;;17.22;100.00;98917.88;3614557;39;20058;-64
2023/08/03 02:18:52;;;;;;;7.88;3.67;;;;;;;17.22;100.00;98928.72;3611642;39;20047;-64
2023/08/03 02:21:18;;;;;;;16.10;4.35;;;;;;;17.20;100.00;98914.47;3612586;39;20066;-65
2023/08/03 02:23:43;;;;;;;10.45;3.53;;;;;;;17.18;100.00;98924.66;3612189;39;20089;-64
2023/08/03 02:26:09;;;;;;;11.70;3.92;;;;;;;17.06;100.00;98901.69;3612443;39;20760;-64
2023/08/03 02:28:35;;;;;;;14.32;4.25;;;;;;;17.17;100.00;98915.69;3617492;39;20515;-62
2023/08/03 02:31:00;;;;;;;10.32;4.18;;;;;;;17.16;100.00;98914.00;3612998;39;20055;-63
2023/08/03 02:33:26;;;;;;;17.77;4.18;;;;;;;17.21;100.00;98935.16;3610080;39;20470;-64
2023/08/03 02:35:52;;;;;;;13.85;3.78;;;;;;;17.20;100.00;98919.91;3611990;39;20058;-63
2023/08/03 02:38:17;;;;;;;9.77;3.72;;;;;;;17.19;100.00;98918.22;3614026;39;20055;-64
2023/08/03 02:40:43;;;;;;;13.52;4.68;;;;;;;17.21;100.00;98932.44;3604715;39;20058;-64
2023/08/03 02:43:08;;;;;;;15.77;4.05;;;;;;;17.22;100.00;98927.84;3618460;39;20321;-64
2023/08/03 02:45:34;;;;;;;13.75;4.57;;;;;;;17.21;100.00;98918.88;3612204;39;20043;-64
2023/08/03 02:48:00;;;;;;;12.40;4.10;;;;;;;17.21;100.00;98915.31;3612908;39;20045;-64
2023/08/03 02:50:25;;;;;;;15.93;4.35;;;;;;;17.22;100.00;98919.72;3613728;39;20057;-64
2023/08/03 02:52:51;;;;;;;15.23;4.22;;;;;;;17.05;100.00;98900.84;3615101;39;20445;-64
2023/08/03 02:55:17;;;;;;;13.50;4.25;;;;;;;17.20;100.00;98919.91;3614235;39;20062;-64
2023/08/03 02:57:43;;;;;;;12.95;4.57;;;;;;;17.20;100.00;98925.34;3618064;39;20051;-64
2023/08/03 03:00:10;;;;;;;14.77;4.53;;;;;;;17.20;100.00;98928.06;3615618;39;20119;-64
2023/08/03 03:02:36;;;;;;;12.48;3.58;;;;;;;17.18;100.00;98927.38;3612022;39;20386;-63
2023/08/03 03:05:02;;;;;;;14.95;3.83;;;;;;;17.15;100.00;98938.59;3612246;39;20389;-63
2023/08/03 03:07:31;;;;;;;10.45;3.38;;;;;;;17.15;100.00;98927.75;3613501;39;20051;-63
2023/08/03 03:09:57;;;;;;;10.25;3.75;;;;;;;17.13;100.00;98935.25;3615856;39;20054;-63
2023/08/03 03:12:23;;;;;;;11.45;3.58;;;;;;;16.97;100.00;98913.66;3615129;39;20321;-63
2023/08/03 03:14:49;;;;;;;10.10;3.50;;;;;;;17.15;100.00;98944.88;3614446;39;20063;-63
2023/08/03 03:17:15;;;;;;;11.00;3.75;;;;;;;17.09;100.00;98933.91;3613147;39;20109;-64
2023/08/03 03:19:41;;;;;;;11.15;3.60;;;;;;;17.12;100.00;98955.25;3615285;39;20497;-65
2023/08/03 03:22:07;;;;;;;10.38;3.40;;;;;;;17.09;100.00;98948.31;3602899;39;20058;-64
2023/08/03 03:24:33;;;;;;;11.35;3.53;;;;;;;17.06;100.00;98956.00;3613487;39;20055;-63
2023/08/03 03:26:59;;;;;;;13.23;3.80;;;;;;;17.05;100.00;98959.75;3615702;39;20108;-64
2023/08/03 03:29:24;;;;;;;11.32;3.40;;;;;;;17.02;100.00;98960.09;3614369;39;20062;-63
2023/08/03 03:31:50;;;;;;;10.10;3.50;;;;;;;16.98;100.00;98959.63;3603304;39;20093;-63
2023/08/03 03:34:16;;;;;;;11.95;3.60;;;;;;;17.00;100.00;98959.44;3617059;39;20066;-64
2023/08/03 03:36:41;;;;;;;9.50;3.65;;;;;;;16.94;100.00;98958.31;3615939;39;20094;-63
2023/08/03 03:39:07;;;;;;;10.75;3.40;;;;;;;17.04;100.00;98968.94;3618608;39;20061;-63
2023/08/03 03:41:32;;;;;;;12.40;3.67;;;;;;;16.97;100.00;98965.22;3614078;39;20050;-64
2023/08/03 03:43:58;;;;;;;9.55;3.15;;;;;;;17.03;100.00;98978.06;3614713;39;20055;-63
2023/08/03 03:46:24;;;;;;;10.55;3.25;;;;;;;16.93;100.00;98971.00;3618701;39;20050;-63
2023/08/03 03:48:49;;;;;;;8.27;3.28;;;;;;;17.02;100.00;98981.81;3617052;39;20059;-63
2023/08/03 03:51:17;;;;;;;8.73;2.90;;;;;;;17.01;100.00;99001.88;3618337;39;20067;-63
2023/08/03 03:53:43;;;;;;;7.78;2.78;;;;;;;17.00;100.00;99006.44;3614049;39;20660;-63
2023/08/03 03:56:08;;;;;;;9.48;3.22;;;;;;;17.01;100.00;99010.00;3607103;39;20424;-64
2023/08/03 03:58:34;;;;;;;8.15;2.85;;;;;;;17.04;100.00;99009.66;3615379;39;20138;-65
2023/08/03 04:01:00;;;;;;;7.20;2.67;;;;;;;17.02;100.00;99014.41;3615188;39;20373;-64
2023/08/03 04:03:26;;;;;;;8.48;2.67;;;;;;;17.00;100.00;99014.59;3612642;39;20059;-64
2023/08/03 04:05:53;;;;;;;11.52;3.10;;;;;;;16.98;100.00;99019.34;3612687;39;20053;-64
2023/08/03 04:08:18;;;;;;;9.88;2.80;;;;;;;17.00;100.00;99030.00;3617435;39;20085;-64
2023/08/03 04:10:44;;;;;;;9.75;3.08;;;;;;;16.99;100.00;99028.34;3614445;39;20408;-64
2023/08/03 04:13:10;;;;;;;8.00;2.60;;;;;;;17.03;100.00;99033.25;3617371;39;20281;-64
2023/08/03 04:15:36;;;;;;;8.95;3.28;;;;;;;17.01;100.00;99029.00;3615627;39;20285;-63
2023/08/03 04:18:01;;;;;;;7.57;2.72;;;;;;;17.01;100.00;99039.88;3609789;39;20103;-64
2023/08/03 04:20:27;;;;;;;11.70;3.38;;;;;;;17.00;100.00;99033.59;3613035;39;20429;-63
2023/08/03 04:22:53;;;;;;;7.82;3.13;;;;;;;17.00;100.00;99046.31;3614555;39;20382;-64
2023/08/03 04:25:18;;;;;;;8.43;3.10;;;;;;;16.99;100.00;99041.91;3614015;39;20090;-64
2023/08/03 04:27:44;;;;;;;9.50;3.00;;;;;;;16.99;100.00;99044.63;3616248;39;20058;-63
2023/08/03 04:30:11;;;;;;;7.63;2.67;;;;;;;16.97;100.00;99049.38;3618388;39;20073;-65
2023/08/03 04:32:37;;;;;;;8.15;3.00;;;;;;;16.83;100.00;99043.69;3613189;39;20401;-64
2023/08/03 04:35:04;;;;;;;8.65;2.60;;;;;;;16.92;100.00;99067.06;3615296;39;20055;-64
2023/08/03 04:37:29;;;;;;;7.15;3.00;;;;;;;16.89;100.00;99061.97;3619171;39;20054;-64
2023/08/03 04:39:55;;;;;;;6.53;2.70;;;;;;;16.66;100.00;99044.78;3615977;39;20122;-64
2023/08/03 04:42:21;;;;;;;8.77;2.85;;;;;;;16.88;100.00;99082.00;3617720;39;20403;-65
2023/08/03 04:44:47;;;;;;;5.38;2.53;;;;;;;16.87;100.00;99099.31;3615625;39;20051;-64
2023/08/03 04:47:13;;;;;;;6.78;2.55;;;;;;;16.86;100.00;99094.91;3614279;39;20055;-65
2023/08/03 04:49:39;;;;;;;7.20;2.67;;;;;;;16.88;100.00;99095.59;3614593;39;20111;-65
2023/08/03 04:52:05;;;;;;;4.85;2.47;;;;;;;16.88;100.00;99100.16;3619738;39;20296;-64
2023/08/03 04:54:31;;;;;;;6.90;2.85;;;;;;;16.88;100.00;99100.16;3616353;39;20525;-64
2023/08/03 04:56:56;;;;;;;6.25;2.40;;;;;;;16.90;100.00;99098.97;3618501;39;20046;-64
2023/08/03 04:59:22;;;;;;;5.85;1.92;;;;;;;16.88;100.00;99095.59;3607295;39;20070;-64
2023/08/03 05:01:47;;;;;;;3.10;1.90;;;;;;;16.35;100.00;99015.78;3615977;39;20428;-63
2023/08/03 05:04:13;;;;;;;4.88;1.70;;;;;;;16.91;100.00;99110.66;3615926;39;20050;-64
2023/08/03 05:06:39;;;;;;;3.63;1.80;;;;;;;16.88;100.00;99116.44;3615289;39;20074;-64
2023/08/03 05:09:04;;;;;;;4.63;1.90;;;;;;;16.91;100.00;99122.38;3613481;39;20057;-62
2023/08/03 05:11:30;;;;;;;4.88;2.20;;;;;;;16.92;100.00;99115.91;3613291;39;20055;-64
2023/08/03 05:13:55;;;;;;;4.05;1.80;;;;;;;16.92;100.00;99129.47;3619802;39;20049;-64
2023/08/03 05:16:24;;;;;;;3.08;1.38;;;;;;;16.93;100.00;99135.75;3617570;39;20094;-64
2023/08/03 05:18:53;;;;;;;3.90;1.80;;;;;;;16.96;100.00;99138.09;3616817;39;20373;-65
2023/08/03 05:21:19;;;;;;;6.30;1.83;;;;;;;16.99;100.00;99140.47;3613891;39;20050;-65
2023/08/03 05:23:46;;;;;;;5.20;1.60;;;;;;;17.01;100.00;99153.88;3615255;39;20062;-63
2023/08/03 05:26:12;;;;;;;5.00;1.60;;;;;;;17.04;100.00;99146.22;3618269;39;20058;-64
2023/08/03 05:28:38;;;;;;;7.03;1.95;;;;;;;16.99;100.00;99142.34;3615505;39;20058;-65
2023/08/03 05:31:05;;;;;;;5.20;1.58;;;;;;;17.04;100.00;99148.09;3618105;39;20065;-65
2023/08/03 05:33:35;;;;;;;3.65;1.67;;;;;;;17.03;100.00;99155.41;3615196;39;20063;-65
2023/08/03 05:36:01;;;;;;;6.57;1.83;;;;;;;17.06;100.00;99167.75;3613158;39;20054;-65
2023/08/03 05:38:28;;;;;;;4.28;1.70;;;;;;;17.07;100.00;99167.59;3615167;39;20050;-65
2023/08/03 05:40:54;;;;;;;6.38;2.08;;;;;;;17.09;100.00;99162.81;3614538;39;20101;-65
2023/08/03 05:43:26;;;;;;;6.05;1.80;;;;;;;17.10;100.00;99166.38;3617262;39;20050;-64
2023/08/03 05:46:00;;;;;;;6.05;1.95;;;;;;;17.13;100.00;99171.47;3616746;39;20062;-64
2023/08/03 05:48:30;;;;;;;5.22;1.55;;;;;;;17.13;100.00;99182.31;3617463;39;20063;-64
2023/08/03 05:50:57;;;;;;;7.57;1.85;;;;;;;17.15;100.00;99188.41;3613604;39;20053;-64
2023/08/03 05:53:24;;;;;;;6.60;1.80;;;;;;;17.07;100.00;99174.88;3614013;39;20053;-64
2023/08/03 05:55:49;;;;;;;3.05;1.70;;;;;;;17.18;100.00;99194.31;3619840;39;20054;-65
2023/08/03 05:58:17;;;;;;;4.72;1.60;;;;;;;17.19;100.00;99203.34;3616578;39;20074;-65
2023/08/03 06:00:49;;;;;;;5.50;1.48;;;;;;;17.20;100.00;99202.31;3613902;39;20595;-64
2023/08/03 06:03:18;;;;;;;2.78;1.45;;;;;;;17.20;100.00;99207.75;3615254;39;20395;-65
2023/08/03 06:05:50;;;;;;;6.78;1.67;;;;;;;17.22;100.00;99219.28;3615309;39;20055;-64
2023/08/03 06:08:23;;;;;;;7.85;1.80;;;;;;;17.23;99.69;99217.41;3612940;39;20046;-64
2023/08/03 06:10:56;;;;;;;5.25;1.50;;;;;;;17.23;99.34;99218.25;3619290;39;20050;-65
2023/08/03 06:13:35;;;;;;;4.80;1.77;;;;;;;17.22;99.54;99227.44;3614866;39;20066;-65
2023/08/03 06:16:14;;;;;;;6.43;1.80;;;;;;;17.22;98.53;99234.72;3615251;39;20066;-65
2023/08/03 06:18:52;;;;;;;5.68;1.83;;;;;;;17.24;99.20;99247.09;3612299;39;20104;-65
2023/08/03 06:21:20;;;;;;;10.27;1.83;;;;;;;17.21;98.47;99236.59;3614086;39;20134;-65
2023/08/03 06:23:49;;;;;;;5.60;1.83;;;;;;;17.25;99.45;99242.50;3616442;39;20050;-65
2023/08/03 06:26:18;;;;;;;8.73;1.98;;;;;;;17.25;99.00;99248.78;3614557;39;20059;-65
2023/08/03 06:28:46;;;;;;;5.13;2.00;;;;;;;17.26;98.88;99241.50;3614742;39;20092;-65
2023/08/03 06:31:17;;;;;;;3.25;1.65;;;;;;;17.26;99.58;99247.78;3601025;39;21651;-65
2023/08/03 06:33:46;;;;;;;7.30;1.63;;;;;;;17.28;99.52;99247.59;3612649;39;20039;-65
2023/08/03 06:36:19;;;;;;;5.57;1.85;;;;;;;17.30;99.73;99249.09;3614091;39;20067;-65
2023/08/03 06:38:45;;;;;;;3.70;1.58;;;;;;;17.30;99.02;99249.09;3612581;39;20578;-65
2023/08/03 06:41:11;;;;;;;6.85;1.85;;;;;;;17.26;98.36;99263.22;3606774;39;20062;-65
2023/08/03 06:43:37;;;;;;;7.25;1.58;;;;;;;17.24;98.23;99257.13;3615627;39;20087;-66
2023/08/03 06:46:04;;;;;;;6.90;1.70;;;;;;;17.22;98.59;99259.16;3611922;39;20066;-65
2023/08/03 06:48:32;;;;;;;8.77;1.80;;;;;;;17.32;98.22;99282.38;3614165;39;20110;-65
2023/08/03 06:50:57;;;;;;;9.45;1.98;;;;;;;17.34;98.43;99288.47;3613714;39;20069;-65
2023/08/03 06:53:23;;;;;;;7.13;1.73;;;;;;;17.35;97.51;99290.19;3616638;39;20093;-66
2023/08/03 06:55:49;;;;;;;7.00;1.25;;;;;;;17.38;97.42;99292.53;3615813;39;20046;-65
2023/08/03 06:58:17;;;;;;;6.15;1.55;;;;;;;17.39;95.93;99304.25;3616788;39;20066;-66
2023/08/03 07:00:44;;;;;;;4.35;1.38;;;;;;;17.43;96.78;99307.44;3618229;39;20058;-65
2023/08/03 07:03:11;;;;;;;5.78;1.45;;;;;;;17.45;95.75;99308.97;3617023;39;20161;-65
2023/08/03 07:05:39;;;;;;;4.05;1.52;;;;;;;17.46;95.91;99310.66;3617164;39;20059;-65
2023/08/03 07:08:04;;;;;;;4.43;1.65;;;;;;;17.47;96.22;99320.50;3611843;39;20321;-65
2023/08/03 07:10:30;;;;;;;4.72;1.60;;;;;;;17.48;96.46;99322.22;3612979;39;20050;-66
2023/08/03 07:12:56;;;;;;;6.50;1.52;;;;;;;17.47;96.42;99327.81;3614193;39;20055;-65
2023/08/03 07:15:22;;;;;;;4.55;1.42;;;;;;;17.52;97.28;99326.25;3614357;39;20050;-65
2023/08/03 07:17:48;;;;;;;5.43;1.52;;;;;;;17.52;96.43;99328.13;3615496;39;20176;-65
2023/08/03 07:20:14;;;;;;;3.70;1.63;;;;;;;17.52;96.38;99341.72;3617078;39;20127;-65
2023/08/03 07:22:40;;;;;;;7.93;2.35;;;;;;;17.54;96.23;99340.53;3616004;39;20062;-65
2023/08/03 07:25:06;;;;;;;6.47;1.58;;;;;;;17.58;96.22;99341.00;3617331;39;20073;-66
2023/08/03 07:27:32;;;;;;;4.65;1.48;;;;;;;17.48;95.47;99329.53;3613620;39;20053;-65
2023/08/03 07:29:59;;;;;;;6.55;1.33;;;;;;;17.62;95.10;99351.34;3613812;39;20103;-66
2023/08/03 07:32:25;;;;;;;4.75;1.48;;;;;;;17.63;94.99;99354.91;3614439;39;20047;-66
2023/08/03 07:34:50;;;;;;;4.75;1.77;;;;;;;17.71;95.43;99351.31;3615597;39;20301;-66
2023/08/03 07:37:16;;;;;;;6.75;1.70;;;;;;;17.77;95.28;99350.66;3614073;39;20105;-66
2023/08/03 07:39:42;;;;;;;5.10;1.70;;;;;;;17.86;94.85;99358.56;3620438;39;20681;-66
2023/08/03 07:42:07;;;;;;;6.90;1.70;;;;;;;17.96;93.25;99354.78;3614858;39;20190;-66
2023/08/03 07:44:33;;;;;;;6.80;1.73;;;;;;;18.05;93.09;99361.88;3613208;39;20050;-65
2023/08/03 07:46:59;;;;;;;4.45;1.80;;;;;;;18.07;91.43;99373.41;3615891;39;20062;-66
2023/08/03 07:49:24;;;;;;;6.18;1.85;;;;;;;18.09;91.70;99376.81;3604761;39;20071;-66
2023/08/03 07:51:50;;;;;;;5.28;1.67;;;;;;;18.12;92.17;99372.88;3615609;39;20050;-65
2023/08/03 07:54:16;;;;;;;5.55;1.52;;;;;;;18.13;89.97;99367.25;3614277;39;20059;-66
2023/08/03 07:56:42;;;;;;;5.20;1.70;;;;;;;18.13;89.33;99378.13;3615780;39;20046;-65
2023/08/03 07:59:10;;;;;;;5.68;1.70;;;;;;;18.09;90.45;99379.53;3610573;39;20742;-66
2023/08/03 08:01:36;;;;;;;6.63;2.05;;;;;;;17.81;90.37;99341.94;3611182;39;20381;-65
2023/08/03 08:04:02;;;;;;;8.43;2.33;;;;;;;17.98;91.46;99391.66;3614460;39;20046;-66
2023/08/03 08:06:28;;;;;;;7.60;1.77;;;;;;;17.97;91.07;99403.53;3615515;39;20047;-64
2023/08/03 08:08:54;;;;;;;11.40;2.28;;;;;;;17.96;91.87;99409.16;3609981;39;20067;-65
2023/08/03 08:11:21;;;;;;;7.50;2.10;;;;;;;17.95;92.13;99412.88;3612010;39;20427;-64
2023/08/03 08:13:46;;;;;;;8.05;1.80;;;;;;;17.91;92.71;99414.28;3614962;39;20124;-65
2023/08/03 08:16:14;;;;;;;7.15;1.98;;;;;;;17.86;91.94;99410.22;3612075;39;20059;-65
2023/08/03 08:18:40;;;;;;;6.60;1.80;;;;;;;17.84;91.87;99425.84;3618037;39;20108;-65
2023/08/03 08:21:10;;;;;;;5.07;1.75;;;;;;;17.75;93.78;99431.47;3616493;39;20058;-64
2023/08/03 08:23:35;;;;;;;6.05;1.90;;;;;;;17.71;93.75;99433.69;3617793;39;20399;-64
2023/08/03 08:26:07;;;;;;;7.53;2.15;;;;;;;17.69;95.40;99434.88;3617348;39;20104;-64
2023/08/03 08:28:33;;;;;;;7.05;1.90;;;;;;;17.68;95.93;99447.63;3616407;39;20058;-64
2023/08/03 08:30:59;;;;;;;6.38;1.70;;;;;;;17.69;96.48;99452.03;3616522;39;20050;-64
2023/08/03 08:33:24;;;;;;;7.35;2.20;;;;;;;17.69;96.01;99452.03;3614336;39;20051;-65
2023/08/03 08:35:50;;;;;;;9.40;2.83;;;;;;;17.71;96.02;99460.88;3616952;39;20047;-64
2023/08/03 08:38:16;;;;;;;5.25;1.67;;;;;;;17.73;95.42;99474.28;3614014;39;20404;-65
2023/08/03 08:40:44;;;;;;;6.50;1.83;;;;;;;17.71;95.56;99471.75;3616439;39;20387;-65
2023/08/03 08:43:10;;;;;;;6.45;1.67;;;;;;;17.76;96.22;99476.66;3615106;39;20059;-64
2023/08/03 08:45:38;;;;;;;5.78;1.75;;;;;;;17.78;95.49;99482.78;3614178;39;20050;-64
2023/08/03 08:48:05;;;;;;;5.20;1.63;;;;;;;17.79;94.99;99485.34;3614275;39;20066;-66
2023/08/03 08:50:32;;;;;;;5.53;1.90;;;;;;;17.77;95.48;99495.53;3606734;39;20067;-65
2023/08/03 08:52:58;;;;;;;4.93;1.50;;;;;;;17.77;95.29;99500.97;3619458;39;20050;-65
2023/08/03 08:55:30;;;;;;;3.60;1.35;;;;;;;17.76;94.94;99490.22;3613638;39;20091;-65
2023/08/03 08:57:58;;;;;;;2.55;1.00;;;;;;;17.77;95.60;99495.53;3614400;39;20127;-65
2023/08/03 09:00:26;;;;;;;5.55;1.33;;;;;;;17.78;95.62;99499.94;3612658;39;20067;-65
2023/08/03 09:03:00;;;;;;;3.55;1.13;;;;;;;17.64;95.94;99487.91;3617912;39;20053;-65
2023/08/03 09:05:28;;;;;;;4.53;1.50;;;;;;;17.73;96.07;99518.63;3616856;39;20063;-65
2023/08/03 09:08:14;;;;;;;3.70;1.20;;;;;;;17.46;95.40;99479.09;3615926;39;20097;-64
2023/08/03 09:10:55;;;;;;;2.55;1.00;;;;;;;17.59;96.02;99522.03;3617303;39;20084;-65
2023/08/03 09:13:35;;;;;;;4.30;1.70;;;;;;;17.61;97.51;99528.16;3615612;39;20576;-65
2023/08/03 09:16:02;;;;;;;3.10;1.15;;;;;;;17.57;98.06;99524.06;3613488;39;20373;-65
2023/08/03 09:18:31;;;;;;;1.95;0.90;;;;;;;17.66;97.58;99536.63;3613973;39;20055;-65
2023/08/03 09:21:12;;;;;;;1.75;0.85;;;;;;;17.71;98.24;99541.56;3614904;39;20051;-65
2023/08/03 09:23:37;;;;;;;2.10;0.80;;;;;;;17.75;98.21;99549.19;3614592;39;20046;-65
2023/08/03 09:26:05;;;;;;;2.38;0.93;;;;;;;17.76;97.92;99550.91;3613414;39;20126;-65
2023/08/03 09:28:39;;;;;;;3.55;1.40;;;;;;;17.78;97.66;99554.31;3613636;39;20050;-65
2023/08/03 09:31:07;;;;;;;4.30;1.33;;;;;;;17.82;99.20;99568.41;3613157;39;20099;-65
2023/08/03 09:33:34;;;;;;;4.55;1.27;;;;;;;17.81;98.78;99567.56;3615784;39;20338;-65
2023/08/03 09:36:14;;;;;;;4.32;1.63;;;;;;;17.84;99.16;99580.81;3614825;39;20050;-64
2023/08/03 09:38:41;;;;;;;5.97;1.70;;;;;;;17.84;99.06;99588.13;3613576;39;20469;-65
2023/08/03 09:41:09;;;;;;;5.45;1.73;;;;;;;17.87;99.00;99595.94;3612578;39;20671;-65
2023/08/03 09:43:38;;;;;;;7.78;2.10;;;;;;;17.90;99.33;99600.19;3616495;39;20058;-65
2023/08/03 09:46:05;;;;;;;6.90;2.17;;;;;;;17.93;99.66;99605.28;3610999;39;20070;-65
2023/08/03 09:48:31;;;;;;;7.22;2.22;;;;;;;17.92;100.00;99593.56;3615724;39;20373;-66
2023/08/03 09:51:00;;;;;;;8.82;2.22;;;;;;;17.89;100.00;99580.31;3612742;39;20061;-66
2023/08/03 09:53:31;;;;;;;6.40;2.38;;;;;;;18.17;100.00;99623.41;3615963;39;20119;-66
2023/08/03 09:56:01;;;;;;;4.75;2.10;;;;;;;18.21;99.77;99630.22;3606624;39;20063;-66
2023/08/03 09:58:55;;;;;;;7.50;2.20;;;;;;;18.21;98.51;99631.06;3617419;39;20060;-66
2023/08/03 10:01:26;;;;;;;5.22;2.00;;;;;;;18.24;98.94;99632.59;3612588;39;20046;-66
2023/08/03 10:03:59;;;;;;;5.78;2.08;;;;;;;18.23;97.07;99639.88;3615855;39;20408;-66
2023/08/03 10:06:32;;;;;;;5.35;2.05;;;;;;;18.24;97.34;99641.59;3613482;39;20055;-66
2023/08/03 10:09:05;;;;;;;5.68;2.20;;;;;;;18.27;97.34;99652.13;3612375;39;20059;-66
2023/08/03 10:11:41;;;;;;;6.28;1.77;;;;;;;18.32;98.54;99655.16;3615642;39;20050;-66
2023/08/03 10:14:10;;;;;;;5.78;1.80;;;;;;;18.43;97.35;99655.84;3614028;39;20113;-66
2023/08/03 10:16:40;;;;;;;4.38;1.98;;;;;;;18.53;97.54;99656.50;3612350;39;20110;-66
2023/08/03 10:19:08;;;;;;;6.47;1.60;;;;;;;18.72;98.60;99672.44;3614057;39;20621;-66
2023/08/03 10:21:37;;;;;;;5.00;1.48;;;;;;;18.89;96.36;99661.47;3614309;39;20046;-65
2023/08/03 10:24:18;;;;;;;5.00;1.52;;;;;;;19.13;94.88;99666.81;3613466;39;20063;-65
2023/08/03 10:26:51;;;;;;;4.63;1.50;;;;;;;19.33;93.66;99674.53;3613793;39;20128;-65
2023/08/03 10:29:51;;;;;;;4.40;1.40;;;;;;;19.41;92.81;99672.59;3614408;39;20353;-64
2023/08/03 10:32:24;;;;;;;1.90;1.48;;;;;;;19.57;91.28;99679.81;3613785;39;20055;-65
2023/08/03 10:34:56;;;;;;;5.40;1.60;;;;;;;19.63;90.73;99678.22;3614016;39;20131;-65
2023/08/03 10:37:22;;;;;;;2.75;1.38;;;;;;;19.69;90.64;99686.59;3615842;39;20079;-65
2023/08/03 10:39:59;;;;;;;4.30;1.20;;;;;;;19.69;90.14;99681.13;3615137;39;20053;-65
2023/08/03 10:42:34;;;;;;;2.88;1.05;;;;;;;19.80;89.12;99687.19;3603285;39;20466;-65
2023/08/03 10:45:21;;;;;;;5.18;1.35;;;;;;;19.93;89.39;99687.41;3611968;39;20062;-65
2023/08/03 10:47:47;;;;;;;6.63;1.70;;;;;;;20.02;88.01;99697.22;3614133;39;20082;-65
2023/08/03 10:50:12;;;;;;;1.95;1.17;;;;;;;20.11;88.47;99700.75;3613622;39;20054;-65
2023/08/03 10:52:38;;;;;;;7.18;1.73;;;;;;;20.13;87.46;99696.78;3612579;39;20062;-65
2023/08/03 10:55:24;;;;;;;6.63;1.70;;;;;;;20.16;86.54;99698.28;3612277;39;20510;-65
2023/08/03 10:57:50;;;;;;;7.55;1.92;;;;;;;20.18;85.50;99713.44;3614240;39;20438;-65
2023/08/03 11:00:16;;;;;;;4.35;1.60;;;;;;;20.20;85.76;99690.56;3602005;39;20398;-65
2023/08/03 11:02:43;;;;;;;7.00;1.92;;;;;;;20.39;86.22;99725.53;3615064;39;20087;-65
2023/08/03 11:05:11;;;;;;;5.47;1.90;;;;;;;20.28;84.59;99723.25;3613777;39;20055;-65
2023/08/03 11:07:43;;;;;;;6.13;1.80;;;;;;;20.09;84.21;99735.53;3613958;39;20051;-65
2023/08/03 11:10:14;;;;;;;5.90;2.17;;;;;;;19.98;85.49;99728.66;3613995;39;20061;-64
2023/08/03 11:12:43;;;;;;;6.00;1.70;;;;;;;20.00;86.12;99742.09;3615298;39;20065;-65
2023/08/03 11:15:09;;;;;;;5.95;1.92;;;;;;;19.97;84.77;99743.28;3613269;39;20102;-65
2023/08/03 11:17:37;;;;;;;5.63;1.90;;;;;;;19.71;84.67;99722.69;3614426;39;20093;-64
2023/08/03 11:20:07;;;;;;;6.07;2.00;;;;;;;19.75;87.21;99739.53;3613698;39;20266;-65
2023/08/03 11:22:33;;;;;;;9.20;2.58;;;;;;;19.62;88.60;99745.53;3612366;39;20368;-67
2023/08/03 11:25:03;;;;;;;5.88;1.95;;;;;;;19.15;90.80;99705.59;3614360;39;20062;-67
2023/08/03 11:27:30;;;;;;;5.85;2.17;;;;;;;19.20;92.16;99741.34;3613106;39;20053;-65